Anselmo, NE

12:46 AM CDT on May 07, 2015 (GMT -0500)
Broken Bow Municipal | | Change Station
CLOSE
Current Station
Airport
Location: Broken Bow,
Elevation: 2546 ft
Nearby Weather Stations

Elev 2546 ft 41.44 °N, 99.64 °W | Updated 15 minutes ago

Mostly Cloudy
Mostly Cloudy
56 °F
Feels Like 56 °F
N
0
Wind Variable Wind from North

Today
High -- | Low -- °F
--% Chance of Precip.
Yesterday
High -- | Low -- °F
Precip. -- in
6:28 AM 8:43 PM
Waning Gibbous, 90% visible
Pressure 29.61 in
Visibility 7.0 miles
Clouds Mostly Cloudy 500 ft
Dew Point 54 °F
Humidity 93%
Rainfall 0.00 in
Snow Depth Not available.
UV 0 out of 12
Pollen 5.90 out of 12
Air Quality Not available.
Flu Activity Local Activity
SPECI KBBW 070531Z AUTO 00000KT 7SM BKN005 13/12 A2961 RMK AO2 T01330122

More Conditions Fewer Conditions

Pressure 29.61 in
Visibility 7.0 miles
Clouds Mostly Cloudy 500 ft
Dew Point 54 °F
Humidity 93%
Rainfall 0.00 in
Snow Depth Not available.
UV 0 out of 12
Pollen 5.90 out of 12
Air Quality Not available.
Flu Activity Local Activity
SPECI KBBW 070531Z AUTO 00000KT 7SM BKN005 13/12 A2961 RMK AO2 T01330122

More Conditions Fewer Conditions

The Storm Prediction Center has issued an enhanced risk of severe weather for parts of central Texas, Oklahoma, Kansas, and southern Nebraska. Severe thunderstorms are developing throughout the area, producing tornadoes, heavy rain, and large hail. Tornadoes will be possible into the evening.

10-Day Weather Forecast

Almanac

Astronomy

May. 07, 2015 Rise Set
Actual Time
Civil Twilight
Nautical Twilight
Astronomical Twilight
Moon
Length of Visible Light
Length of Day
Tomorrow will be .
, % of the Moon is Illuminated

Today's Extremes

State Highs State Lows

Community

WunderPhotos

Upload Photos

1,819,126 photos uploaded!

WunderBlogs® & News

Nearby

Air Quality

  Air Quality AQ Index Pollutant
Not available.

Snow Depth

Station Depth Elevation

Earthquake Activity

City Distance Mag. Time & Date
Minimum magnitude displayed is 2.5.

Coastal Water Temperatures

Place Temperature

Stations

Nearby Weather Stations

Station Location Temp. Windchill Dew Point Humidity Wind Precip. Elev Updated Type